world map with RJTC marked

RJTC - Airport

This information may not be accurate or current and is not valid for navigation or flight planning. No warranty of fitness for any purpose is made or implied.

flag of Tokyoflag of Japan

Donate via PayPal

Additional information is available on the NEW Great Circle Mapper

Location
City:  Tachikawa, Tokyo, Japan
Name:Tachikawa Airfield
ICAO:RJTC

Details
Type:Airport (Aerodrome, Airfield)
Use:Military
Latitude:35°42'39"N (35.710833)
Longitude:139°24'11"E (139.403056)
Elevation:313 ft (95 m)
Runways:1
Longest:2953 × 148 ft (900 × 45 m)

Time
Timezone:UTC+9 (DST+11)
Local Time:

Weather
METAR:RJTC  230204Z VRB02KT 9999 -RA FEW030 BKN040 BKN180 21/11 Q1012 RMK 2SC030 5SC040 7CI180 A2988

Related Locations
Nearby:
Farthest:SUEX: 12291 mi / 19781 km
Montevideo East [Montevideo East UIR], UY

Find:

   beyond  
but within

Other Information
Maps:
Sources:

  


 


Great Circle Mapper   Great Circle Mapper
Great Circle Mapper FAQ   Great Circle Mapper FAQ
  Karl's Home Page
KLSē   KLSē Home
   GC on Facebook
Airlines of the World   Airlines of the World
Donate via PayPal


Copyright © 2004-2017, Karl L. Swartz. All rights reserved.
All trademarks mentioned herein belong to their respective owners.

Please see credits for attribution and copyright information.

Karl Swartz <karl@kls2.com>
  Powered by FreeBSD
Valid HTML 4.01!
Labeled with ICRA
hCard Microformat
Geo Microformat